Dallas, Texas
Traffic Map
Current Weather Conditions
Dallas, Texas
Broken Clouds
Broken Clouds

Feels Like: 4°
Wind Chill: Ceiling: 27000
Heat Index: Visibility: 10mi
Dew Point: -1° Wind: 8mph
Humidity: 58% Direction: 30° (NNE)
Pressure: 30.47in Gusts: 0mph
Raw Report DataKDAL 301153Z 03007KT 10SM FEW150 SCT230 BKN270 07/M01 A3047 RMK AO2 SLP318 T00671011 10100 20067 53001
Traffic Incident Summary
Active as of:
Severity:
Category:
InformationThere was an issue retrieving the traffic information for this location. Please try a different location or try again shortly.
Advertisements
Track Severe Weather on mobile